sensor_id;sensor_type;location;lat;lon;timestamp;P1;durP1;ratioP1;P2;durP2;ratioP2
11608;SDS011;5860;52.018;8.536;2022-07-23T00:00:18;10.63;;;8.67;;
11608;SDS011;5860;52.018;8.536;2022-07-23T00:02:46;11.10;;;7.50;;
11608;SDS011;5860;52.018;8.536;2022-07-23T00:05:13;12.87;;;8.70;;
11608;SDS011;5860;52.018;8.536;2022-07-23T00:10:59;10.17;;;8.53;;
11608;SDS011;5860;52.018;8.536;2022-07-23T00:13:27;14.53;;;9.20;;
11608;SDS011;5860;52.018;8.536;2022-07-23T00:15:54;11.77;;;8.20;;
11608;SDS011;5860;52.018;8.536;2022-07-23T00:18:21;9.40;;;8.00;;
11608;SDS011;5860;52.018;8.536;2022-07-23T00:20:48;10.67;;;8.93;;
11608;SDS011;5860;52.018;8.536;2022-07-23T00:23:16;13.33;;;8.23;;
11608;SDS011;5860;52.018;8.536;2022-07-23T00:25:43;10.53;;;7.83;;
11608;SDS011;5860;52.018;8.536;2022-07-23T00:28:11;11.83;;;8.00;;
11608;SDS011;5860;52.018;8.536;2022-07-23T00:30:38;12.27;;;8.83;;
11608;SDS011;5860;52.018;8.536;2022-07-23T00:33:06;10.63;;;8.33;;
11608;SDS011;5860;52.018;8.536;2022-07-23T00:35:35;12.93;;;8.20;;
11608;SDS011;5860;52.018;8.536;2022-07-23T00:38:03;10.03;;;7.83;;
11608;SDS011;5860;52.018;8.536;2022-07-23T00:40:31;13.60;;;8.07;;
11608;SDS011;5860;52.018;8.536;2022-07-23T00:42:58;10.67;;;7.67;;
11608;SDS011;5860;52.018;8.536;2022-07-23T00:45:25;10.27;;;7.53;;
11608;SDS011;5860;52.018;8.536;2022-07-23T00:47:52;8.83;;;7.63;;
11608;SDS011;5860;52.018;8.536;2022-07-23T00:50:19;8.10;;;6.97;;
11608;SDS011;5860;52.018;8.536;2022-07-23T00:52:46;10.83;;;6.93;;
11608;SDS011;5860;52.018;8.536;2022-07-23T00:55:13;8.10;;;7.10;;
11608;SDS011;5860;52.018;8.536;2022-07-23T00:57:41;10.90;;;7.53;;
11608;SDS011;5860;52.018;8.536;2022-07-23T01:00:09;8.10;;;6.73;;
11608;SDS011;5860;52.018;8.536;2022-07-23T01:02:38;9.77;;;6.63;;
11608;SDS011;5860;52.018;8.536;2022-07-23T01:05:06;10.63;;;6.50;;
11608;SDS011;5860;52.018;8.536;2022-07-23T01:07:34;8.47;;;6.20;;
11608;SDS011;5860;52.018;8.536;2022-07-23T01:10:01;7.40;;;6.63;;
11608;SDS011;5860;52.018;8.536;2022-07-23T01:12:29;7.07;;;6.37;;
11608;SDS011;5860;52.018;8.536;2022-07-23T01:14:59;7.67;;;6.30;;
11608;SDS011;5860;52.018;8.536;2022-07-23T01:17:27;9.20;;;6.30;;
11608;SDS011;5860;52.018;8.536;2022-07-23T01:19:54;10.53;;;5.97;;
11608;SDS011;5860;52.018;8.536;2022-07-23T01:22:21;8.73;;;6.37;;
11608;SDS011;5860;52.018;8.536;2022-07-23T01:24:48;11.33;;;6.10;;
11608;SDS011;5860;52.018;8.536;2022-07-23T01:27:15;11.80;;;6.23;;
11608;SDS011;5860;52.018;8.536;2022-07-23T01:29:44;7.97;;;5.53;;
11608;SDS011;5860;52.018;8.536;2022-07-23T01:32:11;8.97;;;5.90;;
11608;SDS011;5860;52.018;8.536;2022-07-23T01:34:38;8.53;;;5.70;;
11608;SDS011;5860;52.018;8.536;2022-07-23T01:37:06;8.63;;;6.43;;
11608;SDS011;5860;52.018;8.536;2022-07-23T01:39:33;8.40;;;6.33;;
11608;SDS011;5860;52.018;8.536;2022-07-23T01:42:00;9.33;;;6.50;;
11608;SDS011;5860;52.018;8.536;2022-07-23T01:44:27;9.53;;;6.70;;
11608;SDS011;5860;52.018;8.536;2022-07-23T01:46:55;8.07;;;6.03;;
11608;SDS011;5860;52.018;8.536;2022-07-23T01:49:22;9.47;;;7.00;;
11608;SDS011;5860;52.018;8.536;2022-07-23T01:51:49;10.13;;;6.63;;
11608;SDS011;5860;52.018;8.536;2022-07-23T01:54:32;7.60;;;6.70;;
11608;SDS011;5860;52.018;8.536;2022-07-23T01:57:00;8.90;;;6.93;;
11608;SDS011;5860;52.018;8.536;2022-07-23T01:59:27;9.57;;;7.30;;
11608;SDS011;5860;52.018;8.536;2022-07-23T02:01:54;12.27;;;7.93;;
11608;SDS011;5860;52.018;8.536;2022-07-23T02:04:22;9.93;;;8.00;;
11608;SDS011;5860;52.018;8.536;2022-07-23T02:06:50;12.03;;;8.67;;
11608;SDS011;5860;52.018;8.536;2022-07-23T02:09:18;11.47;;;10.23;;
11608;SDS011;5860;52.018;8.536;2022-07-23T02:11:45;13.60;;;10.17;;
11608;SDS011;5860;52.018;8.536;2022-07-23T02:14:12;13.53;;;11.50;;
11608;SDS011;5860;52.018;8.536;2022-07-23T02:16:39;14.67;;;12.67;;
11608;SDS011;5860;52.018;8.536;2022-07-23T02:19:06;13.50;;;12.07;;
11608;SDS011;5860;52.018;8.536;2022-07-23T02:21:33;13.90;;;10.57;;
11608;SDS011;5860;52.018;8.536;2022-07-23T02:24:00;13.07;;;10.33;;
11608;SDS011;5860;52.018;8.536;2022-07-23T02:26:27;13.10;;;11.13;;
11608;SDS011;5860;52.018;8.536;2022-07-23T02:28:54;18.10;;;11.30;;
11608;SDS011;5860;52.018;8.536;2022-07-23T02:31:21;14.03;;;10.30;;
11608;SDS011;5860;52.018;8.536;2022-07-23T02:33:48;13.63;;;10.07;;
11608;SDS011;5860;52.018;8.536;2022-07-23T02:36:14;16.43;;;11.40;;
11608;SDS011;5860;52.018;8.536;2022-07-23T02:38:41;12.77;;;11.40;;
11608;SDS011;5860;52.018;8.536;2022-07-23T02:41:08;13.33;;;11.93;;
11608;SDS011;5860;52.018;8.536;2022-07-23T02:43:35;16.67;;;12.10;;
11608;SDS011;5860;52.018;8.536;2022-07-23T02:46:02;14.57;;;10.60;;
11608;SDS011;5860;52.018;8.536;2022-07-23T02:48:29;15.10;;;11.07;;
11608;SDS011;5860;52.018;8.536;2022-07-23T02:50:56;12.57;;;10.97;;
11608;SDS011;5860;52.018;8.536;2022-07-23T02:53:23;14.23;;;11.73;;
11608;SDS011;5860;52.018;8.536;2022-07-23T02:55:50;15.03;;;11.47;;
11608;SDS011;5860;52.018;8.536;2022-07-23T02:58:17;16.03;;;10.63;;
11608;SDS011;5860;52.018;8.536;2022-07-23T03:00:44;14.23;;;10.70;;
11608;SDS011;5860;52.018;8.536;2022-07-23T03:03:11;14.07;;;10.03;;
11608;SDS011;5860;52.018;8.536;2022-07-23T03:05:38;12.50;;;9.50;;
11608;SDS011;5860;52.018;8.536;2022-07-23T03:08:05;12.87;;;9.70;;
11608;SDS011;5860;52.018;8.536;2022-07-23T03:10:31;11.33;;;9.17;;
11608;SDS011;5860;52.018;8.536;2022-07-23T03:12:58;11.07;;;8.63;;
11608;SDS011;5860;52.018;8.536;2022-07-23T03:15:25;11.20;;;8.30;;
11608;SDS011;5860;52.018;8.536;2022-07-23T03:17:52;10.73;;;9.13;;
11608;SDS011;5860;52.018;8.536;2022-07-23T03:20:19;11.70;;;8.13;;
11608;SDS011;5860;52.018;8.536;2022-07-23T03:22:45;10.07;;;8.73;;
11608;SDS011;5860;52.018;8.536;2022-07-23T03:25:12;13.87;;;9.80;;
11608;SDS011;5860;52.018;8.536;2022-07-23T03:27:39;10.87;;;9.17;;
11608;SDS011;5860;52.018;8.536;2022-07-23T03:30:06;10.83;;;9.07;;
11608;SDS011;5860;52.018;8.536;2022-07-23T03:32:34;12.47;;;9.43;;
11608;SDS011;5860;52.018;8.536;2022-07-23T03:35:00;13.60;;;9.40;;
11608;SDS011;5860;52.018;8.536;2022-07-23T03:37:28;12.23;;;8.57;;
11608;SDS011;5860;52.018;8.536;2022-07-23T03:39:55;15.20;;;9.73;;
11608;SDS011;5860;52.018;8.536;2022-07-23T03:42:22;13.17;;;8.80;;
11608;SDS011;5860;52.018;8.536;2022-07-23T03:44:49;13.03;;;9.60;;
11608;SDS011;5860;52.018;8.536;2022-07-23T03:47:15;12.03;;;9.77;;
11608;SDS011;5860;52.018;8.536;2022-07-23T03:49:43;11.43;;;9.30;;
11608;SDS011;5860;52.018;8.536;2022-07-23T03:52:10;10.63;;;9.53;;
11608;SDS011;5860;52.018;8.536;2022-07-23T03:54:37;12.17;;;9.33;;
11608;SDS011;5860;52.018;8.536;2022-07-23T03:57:04;12.70;;;9.53;;
11608;SDS011;5860;52.018;8.536;2022-07-23T03:59:31;10.33;;;9.03;;
11608;SDS011;5860;52.018;8.536;2022-07-23T04:01:58;10.73;;;9.27;;
11608;SDS011;5860;52.018;8.536;2022-07-23T04:04:25;12.60;;;8.77;;
11608;SDS011;5860;52.018;8.536;2022-07-23T04:06:52;12.23;;;8.77;;
11608;SDS011;5860;52.018;8.536;2022-07-23T04:09:19;11.43;;;9.27;;
11608;SDS011;5860;52.018;8.536;2022-07-23T04:11:46;12.40;;;9.20;;
11608;SDS011;5860;52.018;8.536;2022-07-23T04:14:13;14.77;;;9.50;;
11608;SDS011;5860;52.018;8.536;2022-07-23T04:16:40;10.37;;;8.90;;
11608;SDS011;5860;52.018;8.536;2022-07-23T04:19:06;14.63;;;8.97;;
11608;SDS011;5860;52.018;8.536;2022-07-23T04:21:33;12.37;;;8.83;;
11608;SDS011;5860;52.018;8.536;2022-07-23T04:24:00;19.60;;;8.77;;
11608;SDS011;5860;52.018;8.536;2022-07-23T04:26:27;10.47;;;8.47;;
11608;SDS011;5860;52.018;8.536;2022-07-23T04:28:54;13.33;;;9.20;;
11608;SDS011;5860;52.018;8.536;2022-07-23T04:31:21;10.10;;;8.70;;
11608;SDS011;5860;52.018;8.536;2022-07-23T04:33:48;11.00;;;8.90;;
11608;SDS011;5860;52.018;8.536;2022-07-23T04:36:15;12.43;;;8.33;;
11608;SDS011;5860;52.018;8.536;2022-07-23T04:38:42;11.37;;;9.70;;
11608;SDS011;5860;52.018;8.536;2022-07-23T04:41:09;9.70;;;7.90;;
11608;SDS011;5860;52.018;8.536;2022-07-23T04:43:36;10.60;;;7.97;;
11608;SDS011;5860;52.018;8.536;2022-07-23T04:46:02;11.33;;;7.23;;
11608;SDS011;5860;52.018;8.536;2022-07-23T04:48:31;9.97;;;6.47;;
11608;SDS011;5860;52.018;8.536;2022-07-23T04:50:58;7.70;;;5.73;;
11608;SDS011;5860;52.018;8.536;2022-07-23T04:53:25;10.37;;;5.23;;
11608;SDS011;5860;52.018;8.536;2022-07-23T04:55:52;6.45;;;4.70;;
11608;SDS011;5860;52.018;8.536;2022-07-23T04:58:19;13.18;;;5.20;;
11608;SDS011;5860;52.018;8.536;2022-07-23T05:00:46;6.70;;;5.00;;
11608;SDS011;5860;52.018;8.536;2022-07-23T05:03:13;7.22;;;5.00;;
11608;SDS011;5860;52.018;8.536;2022-07-23T05:05:40;9.60;;;5.07;;
11608;SDS011;5860;52.018;8.536;2022-07-23T05:08:07;7.95;;;5.18;;
11608;SDS011;5860;52.018;8.536;2022-07-23T05:10:35;8.63;;;4.90;;
11608;SDS011;5860;52.018;8.536;2022-07-23T05:13:02;5.50;;;4.80;;
11608;SDS011;5860;52.018;8.536;2022-07-23T05:15:28;8.23;;;5.03;;
11608;SDS011;5860;52.018;8.536;2022-07-23T05:17:56;8.23;;;4.95;;
11608;SDS011;5860;52.018;8.536;2022-07-23T05:20:23;7.40;;;5.00;;
11608;SDS011;5860;52.018;8.536;2022-07-23T05:22:50;6.00;;;4.97;;
11608;SDS011;5860;52.018;8.536;2022-07-23T05:25:17;5.20;;;4.70;;
11608;SDS011;5860;52.018;8.536;2022-07-23T05:27:44;5.68;;;4.53;;
11608;SDS011;5860;52.018;8.536;2022-07-23T05:30:11;6.88;;;3.88;;
11608;SDS011;5860;52.018;8.536;2022-07-23T05:32:38;6.47;;;4.10;;
11608;SDS011;5860;52.018;8.536;2022-07-23T05:35:05;6.35;;;4.15;;
11608;SDS011;5860;52.018;8.536;2022-07-23T05:37:33;5.25;;;3.40;;
11608;SDS011;5860;52.018;8.536;2022-07-23T05:40:03;6.15;;;3.70;;
11608;SDS011;5860;52.018;8.536;2022-07-23T05:42:34;5.97;;;3.63;;
11608;SDS011;5860;52.018;8.536;2022-07-23T05:45:01;5.50;;;3.53;;
11608;SDS011;5860;52.018;8.536;2022-07-23T05:47:38;5.75;;;3.63;;
11608;SDS011;5860;52.018;8.536;2022-07-23T05:50:09;6.85;;;3.22;;
11608;SDS011;5860;52.018;8.536;2022-07-23T05:52:36;5.38;;;3.15;;
11608;SDS011;5860;52.018;8.536;2022-07-23T05:55:05;4.82;;;2.92;;
11608;SDS011;5860;52.018;8.536;2022-07-23T05:57:33;6.85;;;2.85;;
11608;SDS011;5860;52.018;8.536;2022-07-23T06:00:01;5.05;;;3.10;;
11608;SDS011;5860;52.018;8.536;2022-07-23T06:02:29;5.47;;;2.97;;
11608;SDS011;5860;52.018;8.536;2022-07-23T06:04:56;4.47;;;2.88;;
11608;SDS011;5860;52.018;8.536;2022-07-23T06:07:23;4.13;;;2.85;;
11608;SDS011;5860;52.018;8.536;2022-07-23T06:09:50;7.22;;;3.15;;
11608;SDS011;5860;52.018;8.536;2022-07-23T06:12:17;4.18;;;2.97;;
11608;SDS011;5860;52.018;8.536;2022-07-23T06:14:44;6.00;;;3.40;;
11608;SDS011;5860;52.018;8.536;2022-07-23T06:17:11;4.68;;;3.15;;
11608;SDS011;5860;52.018;8.536;2022-07-23T06:19:38;7.00;;;3.17;;
11608;SDS011;5860;52.018;8.536;2022-07-23T06:22:05;5.20;;;3.22;;
11608;SDS011;5860;52.018;8.536;2022-07-23T06:24:32;4.68;;;2.97;;
11608;SDS011;5860;52.018;8.536;2022-07-23T06:26:58;3.80;;;2.55;;
11608;SDS011;5860;52.018;8.536;2022-07-23T06:29:25;6.28;;;2.85;;
11608;SDS011;5860;52.018;8.536;2022-07-23T06:31:52;4.13;;;2.72;;
11608;SDS011;5860;52.018;8.536;2022-07-23T06:34:19;3.47;;;2.80;;
11608;SDS011;5860;52.018;8.536;2022-07-23T06:36:46;4.32;;;2.58;;
11608;SDS011;5860;52.018;8.536;2022-07-23T06:39:13;5.30;;;2.83;;
11608;SDS011;5860;52.018;8.536;2022-07-23T06:41:40;5.30;;;3.30;;
11608;SDS011;5860;52.018;8.536;2022-07-23T06:44:11;6.10;;;3.20;;
11608;SDS011;5860;52.018;8.536;2022-07-23T06:46:38;4.85;;;3.00;;
11608;SDS011;5860;52.018;8.536;2022-07-23T06:49:05;3.35;;;2.75;;
11608;SDS011;5860;52.018;8.536;2022-07-23T06:51:32;4.93;;;2.90;;
11608;SDS011;5860;52.018;8.536;2022-07-23T06:54:00;3.22;;;2.88;;
11608;SDS011;5860;52.018;8.536;2022-07-23T06:56:27;6.78;;;3.25;;
11608;SDS011;5860;52.018;8.536;2022-07-23T06:58:54;4.05;;;2.97;;
11608;SDS011;5860;52.018;8.536;2022-07-23T07:01:21;3.97;;;2.70;;
11608;SDS011;5860;52.018;8.536;2022-07-23T07:03:48;5.30;;;2.90;;
11608;SDS011;5860;52.018;8.536;2022-07-23T07:06:15;3.67;;;2.63;;
11608;SDS011;5860;52.018;8.536;2022-07-23T07:08:42;5.30;;;2.80;;
11608;SDS011;5860;52.018;8.536;2022-07-23T07:11:10;5.72;;;2.55;;
11608;SDS011;5860;52.018;8.536;2022-07-23T07:13:37;3.95;;;3.33;;
11608;SDS011;5860;52.018;8.536;2022-07-23T07:16:04;4.28;;;3.03;;
11608;SDS011;5860;52.018;8.536;2022-07-23T07:18:32;3.92;;;2.72;;
11608;SDS011;5860;52.018;8.536;2022-07-23T07:20:59;3.85;;;2.90;;
11608;SDS011;5860;52.018;8.536;2022-07-23T07:23:26;5.68;;;2.83;;
11608;SDS011;5860;52.018;8.536;2022-07-23T07:25:52;5.68;;;3.30;;
11608;SDS011;5860;52.018;8.536;2022-07-23T07:28:19;7.38;;;3.80;;
11608;SDS011;5860;52.018;8.536;2022-07-23T07:30:49;4.90;;;3.63;;
11608;SDS011;5860;52.018;8.536;2022-07-23T07:33:16;4.75;;;3.30;;
11608;SDS011;5860;52.018;8.536;2022-07-23T07:35:43;4.97;;;3.53;;
11608;SDS011;5860;52.018;8.536;2022-07-23T07:38:10;4.47;;;3.15;;
11608;SDS011;5860;52.018;8.536;2022-07-23T07:40:37;6.45;;;3.80;;
11608;SDS011;5860;52.018;8.536;2022-07-23T07:43:04;6.00;;;3.22;;
11608;SDS011;5860;52.018;8.536;2022-07-23T07:45:32;6.00;;;3.53;;
11608;SDS011;5860;52.018;8.536;2022-07-23T07:47:59;3.92;;;3.58;;
11608;SDS011;5860;52.018;8.536;2022-07-23T07:50:26;6.07;;;4.35;;
11608;SDS011;5860;52.018;8.536;2022-07-23T07:52:52;7.32;;;4.38;;
11608;SDS011;5860;52.018;8.536;2022-07-23T07:55:19;5.15;;;3.90;;
11608;SDS011;5860;52.018;8.536;2022-07-23T07:57:46;6.43;;;4.20;;
11608;SDS011;5860;52.018;8.536;2022-07-23T08:00:14;9.15;;;4.18;;
11608;SDS011;5860;52.018;8.536;2022-07-23T08:02:46;7.57;;;3.92;;
11608;SDS011;5860;52.018;8.536;2022-07-23T08:05:25;5.63;;;4.00;;
11608;SDS011;5860;52.018;8.536;2022-07-23T08:07:54;4.82;;;3.72;;
11608;SDS011;5860;52.018;8.536;2022-07-23T08:10:23;5.75;;;3.55;;
11608;SDS011;5860;52.018;8.536;2022-07-23T08:12:53;6.40;;;3.55;;
11608;SDS011;5860;52.018;8.536;2022-07-23T08:15:23;5.60;;;3.70;;
11608;SDS011;5860;52.018;8.536;2022-07-23T08:17:51;4.18;;;3.30;;
11608;SDS011;5860;52.018;8.536;2022-07-23T08:20:19;5.38;;;3.28;;
11608;SDS011;5860;52.018;8.536;2022-07-23T08:22:48;6.15;;;3.33;;
11608;SDS011;5860;52.018;8.536;2022-07-23T08:25:21;4.57;;;2.80;;
11608;SDS011;5860;52.018;8.536;2022-07-23T08:27:50;5.78;;;3.30;;
11608;SDS011;5860;52.018;8.536;2022-07-23T08:30:17;5.18;;;3.35;;
11608;SDS011;5860;52.018;8.536;2022-07-23T08:32:49;5.03;;;2.50;;
11608;SDS011;5860;52.018;8.536;2022-07-23T08:35:34;3.33;;;2.70;;
11608;SDS011;5860;52.018;8.536;2022-07-23T08:38:04;4.65;;;2.90;;
11608;SDS011;5860;52.018;8.536;2022-07-23T08:40:33;4.05;;;2.50;;
11608;SDS011;5860;52.018;8.536;2022-07-23T08:43:09;4.75;;;2.80;;
11608;SDS011;5860;52.018;8.536;2022-07-23T08:45:42;8.25;;;2.97;;
11608;SDS011;5860;52.018;8.536;2022-07-23T08:48:12;3.75;;;2.67;;
11608;SDS011;5860;52.018;8.536;2022-07-23T08:50:44;3.40;;;2.78;;
11608;SDS011;5860;52.018;8.536;2022-07-23T08:53:14;5.97;;;2.72;;
11608;SDS011;5860;52.018;8.536;2022-07-23T08:55:47;2.67;;;2.30;;
11608;SDS011;5860;52.018;8.536;2022-07-23T08:58:18;2.75;;;2.05;;
11608;SDS011;5860;52.018;8.536;2022-07-23T09:00:52;2.47;;;2.17;;
11608;SDS011;5860;52.018;8.536;2022-07-23T09:03:20;4.97;;;2.00;;
11608;SDS011;5860;52.018;8.536;2022-07-23T09:05:52;3.97;;;2.55;;
11608;SDS011;5860;52.018;8.536;2022-07-23T09:08:24;8.38;;;2.70;;
11608;SDS011;5860;52.018;8.536;2022-07-23T09:10:59;5.25;;;2.45;;
11608;SDS011;5860;52.018;8.536;2022-07-23T09:16:15;3.83;;;2.20;;
11608;SDS011;5860;52.018;8.536;2022-07-23T09:18:43;4.10;;;2.10;;
11608;SDS011;5860;52.018;8.536;2022-07-23T09:21:19;4.60;;;2.10;;
11608;SDS011;5860;52.018;8.536;2022-07-23T09:31:48;2.85;;;2.53;;
11608;SDS011;5860;52.018;8.536;2022-07-23T09:34:35;6.30;;;2.65;;
11608;SDS011;5860;52.018;8.536;2022-07-23T09:37:09;3.45;;;2.70;;
11608;SDS011;5860;52.018;8.536;2022-07-23T09:39:39;4.03;;;2.50;;
11608;SDS011;5860;52.018;8.536;2022-07-23T09:42:18;3.22;;;2.65;;
11608;SDS011;5860;52.018;8.536;2022-07-23T09:44:47;4.70;;;2.50;;
11608;SDS011;5860;52.018;8.536;2022-07-23T09:47:15;3.40;;;2.22;;
11608;SDS011;5860;52.018;8.536;2022-07-23T09:50:03;2.83;;;2.17;;
11608;SDS011;5860;52.018;8.536;2022-07-23T09:52:33;4.47;;;2.53;;
11608;SDS011;5860;52.018;8.536;2022-07-23T09:55:15;3.92;;;2.67;;
11608;SDS011;5860;52.018;8.536;2022-07-23T09:57:43;6.15;;;2.75;;
11608;SDS011;5860;52.018;8.536;2022-07-23T10:00:12;4.30;;;2.50;;
11608;SDS011;5860;52.018;8.536;2022-07-23T10:02:40;3.30;;;2.40;;
11608;SDS011;5860;52.018;8.536;2022-07-23T10:05:07;5.28;;;2.63;;
11608;SDS011;5860;52.018;8.536;2022-07-23T10:07:36;4.80;;;2.33;;
11608;SDS011;5860;52.018;8.536;2022-07-23T10:10:05;7.82;;;3.15;;
11608;SDS011;5860;52.018;8.536;2022-07-23T10:12:33;7.82;;;3.00;;
11608;SDS011;5860;52.018;8.536;2022-07-23T10:15:18;2.78;;;2.58;;
11608;SDS011;5860;52.018;8.536;2022-07-23T10:17:45;2.63;;;2.40;;
11608;SDS011;5860;52.018;8.536;2022-07-23T10:20:13;2.70;;;2.45;;
11608;SDS011;5860;52.018;8.536;2022-07-23T10:22:42;4.30;;;2.70;;
11608;SDS011;5860;52.018;8.536;2022-07-23T10:25:24;2.88;;;2.50;;
11608;SDS011;5860;52.018;8.536;2022-07-23T10:31:06;2.95;;;2.30;;
11608;SDS011;5860;52.018;8.536;2022-07-23T10:34:21;5.25;;;2.58;;
11608;SDS011;5860;52.018;8.536;2022-07-23T10:37:08;4.82;;;2.58;;
11608;SDS011;5860;52.018;8.536;2022-07-23T10:40:12;5.60;;;3.17;;
11608;SDS011;5860;52.018;8.536;2022-07-23T10:42:38;4.75;;;2.78;;
11608;SDS011;5860;52.018;8.536;2022-07-23T10:45:21;2.72;;;2.20;;
11608;SDS011;5860;52.018;8.536;2022-07-23T10:47:49;3.55;;;2.30;;
11608;SDS011;5860;52.018;8.536;2022-07-23T10:53:30;3.40;;;2.17;;
11608;SDS011;5860;52.018;8.536;2022-07-23T10:55:47;3.00;;;2.30;;
11608;SDS011;5860;52.018;8.536;2022-07-23T10:58:20;2.70;;;2.05;;
11608;SDS011;5860;52.018;8.536;2022-07-23T11:00:48;2.85;;;2.17;;
11608;SDS011;5860;52.018;8.536;2022-07-23T11:03:37;4.40;;;2.45;;
11608;SDS011;5860;52.018;8.536;2022-07-23T11:06:04;2.10;;;1.90;;
11608;SDS011;5860;52.018;8.536;2022-07-23T11:08:31;4.93;;;2.33;;
11608;SDS011;5860;52.018;8.536;2022-07-23T11:13:29;3.15;;;1.77;;
11608;SDS011;5860;52.018;8.536;2022-07-23T11:18:53;2.97;;;1.90;;
11608;SDS011;5860;52.018;8.536;2022-07-23T11:24:11;5.22;;;2.25;;
11608;SDS011;5860;52.018;8.536;2022-07-23T11:31:58;2.60;;;1.60;;
11608;SDS011;5860;52.018;8.536;2022-07-23T11:37:08;2.22;;;1.80;;
11608;SDS011;5860;52.018;8.536;2022-07-23T11:39:36;5.50;;;1.70;;
11608;SDS011;5860;52.018;8.536;2022-07-23T11:42:06;1.85;;;1.63;;
11608;SDS011;5860;52.018;8.536;2022-07-23T11:44:34;2.13;;;1.67;;
11608;SDS011;5860;52.018;8.536;2022-07-23T11:47:05;4.70;;;1.75;;
11608;SDS011;5860;52.018;8.536;2022-07-23T11:49:36;3.85;;;1.58;;
11608;SDS011;5860;52.018;8.536;2022-07-23T11:54:47;4.18;;;1.70;;
11608;SDS011;5860;52.018;8.536;2022-07-23T11:57:20;2.35;;;1.80;;
11608;SDS011;5860;52.018;8.536;2022-07-23T11:59:52;3.03;;;1.70;;
11608;SDS011;5860;52.018;8.536;2022-07-23T12:02:22;1.67;;;1.40;;
11608;SDS011;5860;52.018;8.536;2022-07-23T12:04:50;4.22;;;1.75;;
11608;SDS011;5860;52.018;8.536;2022-07-23T12:07:25;2.63;;;1.52;;
11608;SDS011;5860;52.018;8.536;2022-07-23T12:09:57;2.85;;;1.40;;
11608;SDS011;5860;52.018;8.536;2022-07-23T12:12:26;2.67;;;1.30;;
11608;SDS011;5860;52.018;8.536;2022-07-23T12:14:57;4.43;;;1.42;;
11608;SDS011;5860;52.018;8.536;2022-07-23T12:17:28;2.70;;;1.50;;
11608;SDS011;5860;52.018;8.536;2022-07-23T12:19:58;2.85;;;1.63;;
11608;SDS011;5860;52.018;8.536;2022-07-23T12:22:26;4.22;;;1.65;;
11608;SDS011;5860;52.018;8.536;2022-07-23T12:25:18;3.38;;;1.38;;
11608;SDS011;5860;52.018;8.536;2022-07-23T12:27:57;2.38;;;1.67;;
11608;SDS011;5860;52.018;8.536;2022-07-23T12:30:31;4.57;;;1.80;;
11608;SDS011;5860;52.018;8.536;2022-07-23T12:33:00;2.70;;;1.35;;
11608;SDS011;5860;52.018;8.536;2022-07-23T12:35:46;3.92;;;1.52;;
11608;SDS011;5860;52.018;8.536;2022-07-23T12:38:18;3.47;;;1.70;;
11608;SDS011;5860;52.018;8.536;2022-07-23T12:40:48;2.75;;;1.60;;
11608;SDS011;5860;52.018;8.536;2022-07-23T12:43:24;2.70;;;1.45;;
11608;SDS011;5860;52.018;8.536;2022-07-23T12:45:54;2.00;;;1.20;;
11608;SDS011;5860;52.018;8.536;2022-07-23T12:53:55;4.70;;;1.70;;
11608;SDS011;5860;52.018;8.536;2022-07-23T12:56:28;2.75;;;1.35;;
11608;SDS011;5860;52.018;8.536;2022-07-23T12:58:56;2.05;;;1.58;;
11608;SDS011;5860;52.018;8.536;2022-07-23T13:01:28;2.38;;;1.20;;
11608;SDS011;5860;52.018;8.536;2022-07-23T13:04:00;2.53;;;1.20;;
11608;SDS011;5860;52.018;8.536;2022-07-23T13:06:47;2.45;;;1.50;;
11608;SDS011;5860;52.018;8.536;2022-07-23T13:09:20;1.77;;;1.38;;
11608;SDS011;5860;52.018;8.536;2022-07-23T13:11:50;2.72;;;1.20;;
11608;SDS011;5860;52.018;8.536;2022-07-23T13:14:18;4.35;;;1.20;;
11608;SDS011;5860;52.018;8.536;2022-07-23T13:16:47;1.63;;;1.30;;
11608;SDS011;5860;52.018;8.536;2022-07-23T13:19:16;3.50;;;1.10;;
11608;SDS011;5860;52.018;8.536;2022-07-23T13:21:44;1.83;;;0.95;;
11608;SDS011;5860;52.018;8.536;2022-07-23T13:24:12;3.50;;;1.20;;
11608;SDS011;5860;52.018;8.536;2022-07-23T13:26:39;2.15;;;1.20;;
11608;SDS011;5860;52.018;8.536;2022-07-23T13:29:07;2.85;;;1.15;;
11608;SDS011;5860;52.018;8.536;2022-07-23T13:31:36;2.00;;;1.10;;
11608;SDS011;5860;52.018;8.536;2022-07-23T13:34:04;2.72;;;1.15;;
11608;SDS011;5860;52.018;8.536;2022-07-23T13:36:33;1.60;;;1.00;;
11608;SDS011;5860;52.018;8.536;2022-07-23T13:39:01;2.38;;;1.20;;
11608;SDS011;5860;52.018;8.536;2022-07-23T13:41:30;2.22;;;1.10;;
11608;SDS011;5860;52.018;8.536;2022-07-23T13:43:56;2.33;;;1.10;;
11608;SDS011;5860;52.018;8.536;2022-07-23T13:46:24;4.13;;;1.38;;
11608;SDS011;5860;52.018;8.536;2022-07-23T13:48:51;5.65;;;1.20;;
11608;SDS011;5860;52.018;8.536;2022-07-23T13:51:19;2.05;;;1.15;;
11608;SDS011;5860;52.018;8.536;2022-07-23T13:53:49;1.65;;;0.95;;
11608;SDS011;5860;52.018;8.536;2022-07-23T13:56:16;2.53;;;1.00;;
11608;SDS011;5860;52.018;8.536;2022-07-23T13:58:43;1.88;;;1.20;;
11608;SDS011;5860;52.018;8.536;2022-07-23T14:01:10;2.42;;;1.63;;
11608;SDS011;5860;52.018;8.536;2022-07-23T14:03:37;5.90;;;1.25;;
11608;SDS011;5860;52.018;8.536;2022-07-23T14:06:05;0.85;;;0.82;;
11608;SDS011;5860;52.018;8.536;2022-07-23T14:08:42;2.50;;;1.17;;
11608;SDS011;5860;52.018;8.536;2022-07-23T14:11:10;2.50;;;1.10;;
11608;SDS011;5860;52.018;8.536;2022-07-23T14:13:37;2.80;;;1.38;;
11608;SDS011;5860;52.018;8.536;2022-07-23T14:16:04;1.52;;;1.10;;
11608;SDS011;5860;52.018;8.536;2022-07-23T14:18:31;2.45;;;1.10;;
11608;SDS011;5860;52.018;8.536;2022-07-23T14:20:59;2.97;;;1.30;;
11608;SDS011;5860;52.018;8.536;2022-07-23T14:23:27;2.15;;;1.63;;
11608;SDS011;5860;52.018;8.536;2022-07-23T14:25:55;1.33;;;1.20;;
11608;SDS011;5860;52.018;8.536;2022-07-23T14:28:23;1.35;;;1.20;;
11608;SDS011;5860;52.018;8.536;2022-07-23T14:30:50;1.50;;;1.00;;
11608;SDS011;5860;52.018;8.536;2022-07-23T14:33:17;4.63;;;1.20;;
11608;SDS011;5860;52.018;8.536;2022-07-23T14:35:44;3.10;;;1.10;;
11608;SDS011;5860;52.018;8.536;2022-07-23T14:38:11;2.65;;;1.30;;
11608;SDS011;5860;52.018;8.536;2022-07-23T14:40:39;2.20;;;1.55;;
11608;SDS011;5860;52.018;8.536;2022-07-23T14:43:06;1.25;;;1.02;;
11608;SDS011;5860;52.018;8.536;2022-07-23T14:45:37;1.92;;;1.40;;
11608;SDS011;5860;52.018;8.536;2022-07-23T14:48:04;2.17;;;1.45;;
11608;SDS011;5860;52.018;8.536;2022-07-23T14:50:31;1.90;;;1.10;;
11608;SDS011;5860;52.018;8.536;2022-07-23T14:52:58;2.10;;;1.27;;
11608;SDS011;5860;52.018;8.536;2022-07-23T14:55:25;2.35;;;1.30;;
11608;SDS011;5860;52.018;8.536;2022-07-23T14:57:52;3.45;;;1.45;;
11608;SDS011;5860;52.018;8.536;2022-07-23T15:00:19;1.83;;;1.50;;
11608;SDS011;5860;52.018;8.536;2022-07-23T15:02:49;1.85;;;1.20;;
11608;SDS011;5860;52.018;8.536;2022-07-23T15:05:20;3.03;;;1.27;;
11608;SDS011;5860;52.018;8.536;2022-07-23T15:07:47;2.33;;;1.67;;
11608;SDS011;5860;52.018;8.536;2022-07-23T15:10:15;1.80;;;1.60;;
11608;SDS011;5860;52.018;8.536;2022-07-23T15:12:47;3.00;;;1.83;;
11608;SDS011;5860;52.018;8.536;2022-07-23T15:15:14;1.83;;;1.40;;
11608;SDS011;5860;52.018;8.536;2022-07-23T15:17:41;3.88;;;1.38;;
11608;SDS011;5860;52.018;8.536;2022-07-23T15:20:09;4.45;;;2.17;;
11608;SDS011;5860;52.018;8.536;2022-07-23T15:22:36;5.85;;;1.52;;
11608;SDS011;5860;52.018;8.536;2022-07-23T15:25:04;2.92;;;1.50;;
11608;SDS011;5860;52.018;8.536;2022-07-23T15:27:32;3.50;;;1.23;;
11608;SDS011;5860;52.018;8.536;2022-07-23T15:30:00;2.75;;;1.23;;
11608;SDS011;5860;52.018;8.536;2022-07-23T15:32:26;3.75;;;1.33;;
11608;SDS011;5860;52.018;8.536;2022-07-23T15:34:53;2.45;;;1.50;;
11608;SDS011;5860;52.018;8.536;2022-07-23T15:37:21;3.25;;;1.42;;
11608;SDS011;5860;52.018;8.536;2022-07-23T15:39:50;3.03;;;1.70;;
11608;SDS011;5860;52.018;8.536;2022-07-23T15:42:18;4.93;;;1.60;;
11608;SDS011;5860;52.018;8.536;2022-07-23T15:44:45;3.17;;;1.65;;
11608;SDS011;5860;52.018;8.536;2022-07-23T15:47:14;3.97;;;2.03;;
11608;SDS011;5860;52.018;8.536;2022-07-23T15:49:43;3.25;;;2.20;;
11608;SDS011;5860;52.018;8.536;2022-07-23T15:52:13;3.72;;;1.27;;